sensor_id;sensor_type;location;lat;lon;timestamp;temperature;humidity
41756;DHT22;27435;48.480;9.258;2023-08-24T00:02:06;19.20;99.00
41756;DHT22;27435;48.480;9.258;2023-08-24T00:04:32;19.10;99.00
41756;DHT22;27435;48.480;9.258;2023-08-24T00:06:58;19.20;99.00
41756;DHT22;27435;48.480;9.258;2023-08-24T00:09:23;19.20;99.00
41756;DHT22;27435;48.480;9.258;2023-08-24T00:11:50;19.20;99.00
41756;DHT22;27435;48.480;9.258;2023-08-24T00:14:15;19.00;99.00
41756;DHT22;27435;48.480;9.258;2023-08-24T00:16:41;18.80;99.00
41756;DHT22;27435;48.480;9.258;2023-08-24T00:19:07;18.80;99.00
41756;DHT22;27435;48.480;9.258;2023-08-24T00:21:33;18.80;99.00
41756;DHT22;27435;48.480;9.258;2023-08-24T00:23:58;18.80;99.00
41756;DHT22;27435;48.480;9.258;2023-08-24T00:26:25;18.80;99.00
41756;DHT22;27435;48.480;9.258;2023-08-24T00:28:51;18.70;99.00
41756;DHT22;27435;48.480;9.258;2023-08-24T00:31:17;18.70;99.00
41756;DHT22;27435;48.480;9.258;2023-08-24T00:33:43;18.80;99.00
41756;DHT22;27435;48.480;9.258;2023-08-24T00:36:08;18.90;99.00
41756;DHT22;27435;48.480;9.258;2023-08-24T00:38:34;18.90;99.00
41756;DHT22;27435;48.480;9.258;2023-08-24T00:41:00;18.80;99.00
41756;DHT22;27435;48.480;9.258;2023-08-24T00:43:26;18.80;99.00
41756;DHT22;27435;48.480;9.258;2023-08-24T00:45:55;18.90;99.00
41756;DHT22;27435;48.480;9.258;2023-08-24T00:48:21;19.00;99.00
41756;DHT22;27435;48.480;9.258;2023-08-24T00:50:52;19.10;99.00
41756;DHT22;27435;48.480;9.258;2023-08-24T00:53:19;19.10;99.00
41756;DHT22;27435;48.480;9.258;2023-08-24T00:55:45;19.20;99.00
41756;DHT22;27435;48.480;9.258;2023-08-24T00:58:12;19.10;99.00
41756;DHT22;27435;48.480;9.258;2023-08-24T01:00:38;18.90;99.00
41756;DHT22;27435;48.480;9.258;2023-08-24T01:03:04;19.00;99.00
41756;DHT22;27435;48.480;9.258;2023-08-24T01:05:29;18.70;99.00
41756;DHT22;27435;48.480;9.258;2023-08-24T01:07:55;18.70;99.00
41756;DHT22;27435;48.480;9.258;2023-08-24T01:10:22;18.70;99.00
41756;DHT22;27435;48.480;9.258;2023-08-24T01:13:09;18.60;99.00
41756;DHT22;27435;48.480;9.258;2023-08-24T01:15:48;18.50;99.00
41756;DHT22;27435;48.480;9.258;2023-08-24T01:18:17;18.50;99.00
41756;DHT22;27435;48.480;9.258;2023-08-24T01:20:47;18.60;99.00
41756;DHT22;27435;48.480;9.258;2023-08-24T01:26:11;18.70;99.00
41756;DHT22;27435;48.480;9.258;2023-08-24T01:28:37;18.70;99.00
41756;DHT22;27435;48.480;9.258;2023-08-24T01:31:04;18.60;99.00
41756;DHT22;27435;48.480;9.258;2023-08-24T01:33:30;18.40;99.00
41756;DHT22;27435;48.480;9.258;2023-08-24T01:35:56;18.40;99.00
41756;DHT22;27435;48.480;9.258;2023-08-24T01:38:22;18.40;99.00
41756;DHT22;27435;48.480;9.258;2023-08-24T01:43:18;18.40;99.00
41756;DHT22;27435;48.480;9.258;2023-08-24T01:45:46;18.40;99.00
41756;DHT22;27435;48.480;9.258;2023-08-24T01:48:13;18.50;99.00
41756;DHT22;27435;48.480;9.258;2023-08-24T01:50:39;18.50;99.00
41756;DHT22;27435;48.480;9.258;2023-08-24T01:53:06;18.50;99.00
41756;DHT22;27435;48.480;9.258;2023-08-24T01:55:31;18.60;99.00
41756;DHT22;27435;48.480;9.258;2023-08-24T01:57:58;18.60;99.00
41756;DHT22;27435;48.480;9.258;2023-08-24T02:00:23;18.60;99.00
41756;DHT22;27435;48.480;9.258;2023-08-24T02:02:49;18.40;99.00
41756;DHT22;27435;48.480;9.258;2023-08-24T02:05:15;18.40;99.00
41756;DHT22;27435;48.480;9.258;2023-08-24T02:07:40;18.60;99.00
41756;DHT22;27435;48.480;9.258;2023-08-24T02:10:06;18.70;99.00
41756;DHT22;27435;48.480;9.258;2023-08-24T02:12:32;18.70;99.00
41756;DHT22;27435;48.480;9.258;2023-08-24T02:14:58;18.80;99.00
41756;DHT22;27435;48.480;9.258;2023-08-24T02:17:23;18.90;99.00
41756;DHT22;27435;48.480;9.258;2023-08-24T02:19:49;18.90;99.00
41756;DHT22;27435;48.480;9.258;2023-08-24T02:22:15;18.70;99.00
41756;DHT22;27435;48.480;9.258;2023-08-24T02:24:41;18.50;99.00
41756;DHT22;27435;48.480;9.258;2023-08-24T02:27:06;18.40;99.00
41756;DHT22;27435;48.480;9.258;2023-08-24T02:29:32;18.30;99.00
41756;DHT22;27435;48.480;9.258;2023-08-24T02:31:58;18.30;99.00
41756;DHT22;27435;48.480;9.258;2023-08-24T02:34:23;18.20;99.00
41756;DHT22;27435;48.480;9.258;2023-08-24T02:36:49;18.20;99.00
41756;DHT22;27435;48.480;9.258;2023-08-24T02:39:14;18.20;99.00
41756;DHT22;27435;48.480;9.258;2023-08-24T02:41:40;18.10;99.00
41756;DHT22;27435;48.480;9.258;2023-08-24T02:44:06;18.10;99.00
41756;DHT22;27435;48.480;9.258;2023-08-24T02:46:31;18.10;99.00
41756;DHT22;27435;48.480;9.258;2023-08-24T02:48:57;18.20;99.00
41756;DHT22;27435;48.480;9.258;2023-08-24T02:51:23;18.30;99.00
41756;DHT22;27435;48.480;9.258;2023-08-24T02:53:49;18.40;99.00
41756;DHT22;27435;48.480;9.258;2023-08-24T02:56:15;18.40;99.00
41756;DHT22;27435;48.480;9.258;2023-08-24T02:58:41;18.50;99.00
41756;DHT22;27435;48.480;9.258;2023-08-24T03:01:07;18.60;99.00
41756;DHT22;27435;48.480;9.258;2023-08-24T03:03:33;18.80;99.00
41756;DHT22;27435;48.480;9.258;2023-08-24T03:06:01;19.10;99.00
41756;DHT22;27435;48.480;9.258;2023-08-24T03:08:27;19.20;99.00
41756;DHT22;27435;48.480;9.258;2023-08-24T03:10:53;19.20;99.00
41756;DHT22;27435;48.480;9.258;2023-08-24T03:13:19;19.20;99.00
41756;DHT22;27435;48.480;9.258;2023-08-24T03:15:45;19.20;99.00
41756;DHT22;27435;48.480;9.258;2023-08-24T03:18:14;19.00;99.00
41756;DHT22;27435;48.480;9.258;2023-08-24T03:20:41;18.70;99.00
41756;DHT22;27435;48.480;9.258;2023-08-24T03:23:07;18.50;99.00
41756;DHT22;27435;48.480;9.258;2023-08-24T03:25:37;18.50;99.00
41756;DHT22;27435;48.480;9.258;2023-08-24T03:28:04;18.30;99.00
41756;DHT22;27435;48.480;9.258;2023-08-24T03:30:29;18.30;99.00
41756;DHT22;27435;48.480;9.258;2023-08-24T03:32:55;18.30;99.00
41756;DHT22;27435;48.480;9.258;2023-08-24T03:35:21;18.30;99.00
41756;DHT22;27435;48.480;9.258;2023-08-24T03:37:47;18.30;99.00
41756;DHT22;27435;48.480;9.258;2023-08-24T03:40:12;18.30;99.00
41756;DHT22;27435;48.480;9.258;2023-08-24T03:42:38;18.30;99.00
41756;DHT22;27435;48.480;9.258;2023-08-24T03:45:04;18.30;99.00
41756;DHT22;27435;48.480;9.258;2023-08-24T03:47:30;18.40;99.00
41756;DHT22;27435;48.480;9.258;2023-08-24T03:49:56;18.40;99.00
41756;DHT22;27435;48.480;9.258;2023-08-24T03:52:21;18.40;99.00
41756;DHT22;27435;48.480;9.258;2023-08-24T03:54:47;18.40;99.00
41756;DHT22;27435;48.480;9.258;2023-08-24T03:57:13;18.40;99.00
41756;DHT22;27435;48.480;9.258;2023-08-24T03:59:39;18.30;99.00
41756;DHT22;27435;48.480;9.258;2023-08-24T04:02:04;18.30;99.00
41756;DHT22;27435;48.480;9.258;2023-08-24T04:04:30;18.30;99.00
41756;DHT22;27435;48.480;9.258;2023-08-24T04:06:56;18.40;99.00
41756;DHT22;27435;48.480;9.258;2023-08-24T04:09:22;18.40;99.00
41756;DHT22;27435;48.480;9.258;2023-08-24T04:11:47;18.40;99.00
41756;DHT22;27435;48.480;9.258;2023-08-24T04:14:13;18.20;99.00
41756;DHT22;27435;48.480;9.258;2023-08-24T04:16:39;18.10;99.00
41756;DHT22;27435;48.480;9.258;2023-08-24T04:19:05;18.20;99.00
41756;DHT22;27435;48.480;9.258;2023-08-24T04:21:30;18.20;99.00
41756;DHT22;27435;48.480;9.258;2023-08-24T04:23:56;18.30;99.00
41756;DHT22;27435;48.480;9.258;2023-08-24T04:26:22;18.20;99.00
41756;DHT22;27435;48.480;9.258;2023-08-24T04:28:47;18.20;99.00
41756;DHT22;27435;48.480;9.258;2023-08-24T04:31:13;18.20;99.00
41756;DHT22;27435;48.480;9.258;2023-08-24T04:33:38;18.20;99.00
41756;DHT22;27435;48.480;9.258;2023-08-24T04:36:04;18.20;99.00
41756;DHT22;27435;48.480;9.258;2023-08-24T04:38:30;18.30;99.00
41756;DHT22;27435;48.480;9.258;2023-08-24T04:40:56;18.30;99.00
41756;DHT22;27435;48.480;9.258;2023-08-24T04:43:22;18.50;99.00
41756;DHT22;27435;48.480;9.258;2023-08-24T04:45:53;18.50;99.00
41756;DHT22;27435;48.480;9.258;2023-08-24T04:48:20;18.70;99.00
41756;DHT22;27435;48.480;9.258;2023-08-24T04:50:47;18.80;99.00
41756;DHT22;27435;48.480;9.258;2023-08-24T04:53:17;18.80;99.00
41756;DHT22;27435;48.480;9.258;2023-08-24T04:55:43;18.70;99.00
41756;DHT22;27435;48.480;9.258;2023-08-24T04:58:10;18.70;99.00
41756;DHT22;27435;48.480;9.258;2023-08-24T05:00:36;19.00;99.00
41756;DHT22;27435;48.480;9.258;2023-08-24T05:03:06;19.20;99.00
41756;DHT22;27435;48.480;9.258;2023-08-24T05:05:33;19.30;99.00
41756;DHT22;27435;48.480;9.258;2023-08-24T05:07:59;19.40;99.00
41756;DHT22;27435;48.480;9.258;2023-08-24T05:10:26;19.60;99.00
41756;DHT22;27435;48.480;9.258;2023-08-24T05:12:55;19.60;99.00
41756;DHT22;27435;48.480;9.258;2023-08-24T05:15:20;19.60;99.00
41756;DHT22;27435;48.480;9.258;2023-08-24T05:17:46;19.70;99.00
41756;DHT22;27435;48.480;9.258;2023-08-24T05:20:11;19.70;99.00
41756;DHT22;27435;48.480;9.258;2023-08-24T05:22:38;19.50;99.00
41756;DHT22;27435;48.480;9.258;2023-08-24T05:25:03;19.50;99.00
41756;DHT22;27435;48.480;9.258;2023-08-24T05:27:30;19.60;99.00
41756;DHT22;27435;48.480;9.258;2023-08-24T05:29:56;19.80;99.00
41756;DHT22;27435;48.480;9.258;2023-08-24T05:32:21;19.90;99.00
41756;DHT22;27435;48.480;9.258;2023-08-24T05:34:47;20.10;99.00
41756;DHT22;27435;48.480;9.258;2023-08-24T05:37:13;20.20;99.00
41756;DHT22;27435;48.480;9.258;2023-08-24T05:39:38;20.40;99.00
41756;DHT22;27435;48.480;9.258;2023-08-24T05:42:05;20.50;99.00
41756;DHT22;27435;48.480;9.258;2023-08-24T05:44:30;20.60;99.00
41756;DHT22;27435;48.480;9.258;2023-08-24T05:46:56;20.60;99.00
41756;DHT22;27435;48.480;9.258;2023-08-24T05:49:21;20.70;99.00
41756;DHT22;27435;48.480;9.258;2023-08-24T05:51:50;20.80;99.00
41756;DHT22;27435;48.480;9.258;2023-08-24T05:54:16;20.80;99.00
41756;DHT22;27435;48.480;9.258;2023-08-24T05:56:47;20.90;99.00
41756;DHT22;27435;48.480;9.258;2023-08-24T05:59:13;20.80;99.00
41756;DHT22;27435;48.480;9.258;2023-08-24T06:01:39;20.90;99.00
41756;DHT22;27435;48.480;9.258;2023-08-24T06:04:09;21.10;99.00
41756;DHT22;27435;48.480;9.258;2023-08-24T06:06:35;21.30;99.00
41756;DHT22;27435;48.480;9.258;2023-08-24T06:09:01;21.60;98.30
41756;DHT22;27435;48.480;9.258;2023-08-24T06:11:30;21.90;97.30
41756;DHT22;27435;48.480;9.258;2023-08-24T06:13:55;22.10;96.10
41756;DHT22;27435;48.480;9.258;2023-08-24T06:16:21;22.10;95.50
41756;DHT22;27435;48.480;9.258;2023-08-24T06:18:47;22.00;96.50
41756;DHT22;27435;48.480;9.258;2023-08-24T06:21:12;22.00;96.30
41756;DHT22;27435;48.480;9.258;2023-08-24T06:23:38;22.00;96.30
41756;DHT22;27435;48.480;9.258;2023-08-24T06:26:04;21.90;96.60
41756;DHT22;27435;48.480;9.258;2023-08-24T06:28:30;21.80;97.00
41756;DHT22;27435;48.480;9.258;2023-08-24T06:30:56;21.80;97.40
41756;DHT22;27435;48.480;9.258;2023-08-24T06:33:27;21.70;97.80
41756;DHT22;27435;48.480;9.258;2023-08-24T06:35:54;21.60;98.00
41756;DHT22;27435;48.480;9.258;2023-08-24T06:38:19;21.70;97.70
41756;DHT22;27435;48.480;9.258;2023-08-24T06:40:45;21.70;97.50
41756;DHT22;27435;48.480;9.258;2023-08-24T06:43:10;21.80;97.20
41756;DHT22;27435;48.480;9.258;2023-08-24T06:45:36;21.80;97.20
41756;DHT22;27435;48.480;9.258;2023-08-24T06:48:02;21.80;97.00
41756;DHT22;27435;48.480;9.258;2023-08-24T06:50:28;22.00;96.40
41756;DHT22;27435;48.480;9.258;2023-08-24T06:52:54;22.00;96.00
41756;DHT22;27435;48.480;9.258;2023-08-24T06:55:19;22.00;96.30
41756;DHT22;27435;48.480;9.258;2023-08-24T06:57:48;22.10;95.60
41756;DHT22;27435;48.480;9.258;2023-08-24T07:00:15;22.30;94.90
41756;DHT22;27435;48.480;9.258;2023-08-24T07:02:40;22.30;94.70
41756;DHT22;27435;48.480;9.258;2023-08-24T07:05:06;22.30;94.90
41756;DHT22;27435;48.480;9.258;2023-08-24T07:07:34;22.50;94.10
41756;DHT22;27435;48.480;9.258;2023-08-24T07:10:00;22.40;93.90
41756;DHT22;27435;48.480;9.258;2023-08-24T07:12:26;22.20;94.60
41756;DHT22;27435;48.480;9.258;2023-08-24T07:14:51;22.20;95.40
41756;DHT22;27435;48.480;9.258;2023-08-24T07:17:17;22.20;95.00
41756;DHT22;27435;48.480;9.258;2023-08-24T07:19:43;22.00;95.60
41756;DHT22;27435;48.480;9.258;2023-08-24T07:22:09;21.90;96.40
41756;DHT22;27435;48.480;9.258;2023-08-24T07:24:34;21.70;97.10
41756;DHT22;27435;48.480;9.258;2023-08-24T07:27:02;21.80;97.30
41756;DHT22;27435;48.480;9.258;2023-08-24T07:29:29;22.00;96.90
41756;DHT22;27435;48.480;9.258;2023-08-24T07:31:54;22.30;96.10
41756;DHT22;27435;48.480;9.258;2023-08-24T07:34:20;22.60;95.00
41756;DHT22;27435;48.480;9.258;2023-08-24T07:36:48;22.80;94.00
41756;DHT22;27435;48.480;9.258;2023-08-24T07:39:14;22.90;93.50
41756;DHT22;27435;48.480;9.258;2023-08-24T07:41:43;23.20;92.70
41756;DHT22;27435;48.480;9.258;2023-08-24T07:44:09;23.10;92.40
41756;DHT22;27435;48.480;9.258;2023-08-24T07:46:35;23.50;90.80
41756;DHT22;27435;48.480;9.258;2023-08-24T07:49:00;23.70;88.70
41756;DHT22;27435;48.480;9.258;2023-08-24T07:51:26;23.70;88.70
41756;DHT22;27435;48.480;9.258;2023-08-24T07:53:52;23.50;88.30
41756;DHT22;27435;48.480;9.258;2023-08-24T07:56:18;23.30;89.40
41756;DHT22;27435;48.480;9.258;2023-08-24T07:58:47;22.80;90.80
41756;DHT22;27435;48.480;9.258;2023-08-24T08:01:13;22.50;92.00
41756;DHT22;27435;48.480;9.258;2023-08-24T08:03:39;22.40;93.70
41756;DHT22;27435;48.480;9.258;2023-08-24T08:06:04;22.40;94.60
41756;DHT22;27435;48.480;9.258;2023-08-24T08:08:31;22.50;94.70
41756;DHT22;27435;48.480;9.258;2023-08-24T08:11:01;22.90;93.20
41756;DHT22;27435;48.480;9.258;2023-08-24T08:13:28;23.00;93.00
41756;DHT22;27435;48.480;9.258;2023-08-24T08:15:54;23.30;91.40
41756;DHT22;27435;48.480;9.258;2023-08-24T08:18:20;23.60;90.40
41756;DHT22;27435;48.480;9.258;2023-08-24T08:20:45;23.80;89.40
41756;DHT22;27435;48.480;9.258;2023-08-24T08:23:11;24.00;88.90
41756;DHT22;27435;48.480;9.258;2023-08-24T08:25:36;23.80;88.80
41756;DHT22;27435;48.480;9.258;2023-08-24T08:28:03;23.90;88.90
41756;DHT22;27435;48.480;9.258;2023-08-24T08:30:29;23.90;88.20
41756;DHT22;27435;48.480;9.258;2023-08-24T08:32:54;24.10;87.90
41756;DHT22;27435;48.480;9.258;2023-08-24T08:35:22;24.40;87.20
41756;DHT22;27435;48.480;9.258;2023-08-24T08:37:47;24.50;86.60
41756;DHT22;27435;48.480;9.258;2023-08-24T08:40:15;24.60;86.40
41756;DHT22;27435;48.480;9.258;2023-08-24T08:42:41;24.60;86.10
41756;DHT22;27435;48.480;9.258;2023-08-24T08:45:10;24.60;86.30
41756;DHT22;27435;48.480;9.258;2023-08-24T08:47:37;24.90;86.00
41756;DHT22;27435;48.480;9.258;2023-08-24T08:50:03;24.90;85.50
41756;DHT22;27435;48.480;9.258;2023-08-24T08:52:29;25.10;85.60
41756;DHT22;27435;48.480;9.258;2023-08-24T08:54:55;25.50;84.30
41756;DHT22;27435;48.480;9.258;2023-08-24T08:57:23;25.80;83.40
41756;DHT22;27435;48.480;9.258;2023-08-24T08:59:51;25.80;83.30
41756;DHT22;27435;48.480;9.258;2023-08-24T09:02:20;25.90;84.80
41756;DHT22;27435;48.480;9.258;2023-08-24T09:04:47;25.80;84.00
41756;DHT22;27435;48.480;9.258;2023-08-24T09:07:14;26.10;83.30
41756;DHT22;27435;48.480;9.258;2023-08-24T09:09:40;26.00;83.60
41756;DHT22;27435;48.480;9.258;2023-08-24T09:12:06;25.90;83.80
41756;DHT22;27435;48.480;9.258;2023-08-24T09:14:33;26.00;84.20
41756;DHT22;27435;48.480;9.258;2023-08-24T09:16:59;25.90;84.70
41756;DHT22;27435;48.480;9.258;2023-08-24T09:19:29;25.90;83.90
41756;DHT22;27435;48.480;9.258;2023-08-24T09:21:58;26.20;83.10
41756;DHT22;27435;48.480;9.258;2023-08-24T09:24:34;26.30;83.10
41756;DHT22;27435;48.480;9.258;2023-08-24T09:27:21;26.60;82.30
41756;DHT22;27435;48.480;9.258;2023-08-24T09:29:53;26.80;81.40
41756;DHT22;27435;48.480;9.258;2023-08-24T09:32:29;26.60;81.90
41756;DHT22;27435;48.480;9.258;2023-08-24T09:34:55;26.80;81.50
41756;DHT22;27435;48.480;9.258;2023-08-24T09:37:21;27.10;81.10
41756;DHT22;27435;48.480;9.258;2023-08-24T09:39:47;27.30;80.20
41756;DHT22;27435;48.480;9.258;2023-08-24T09:42:14;27.20;80.50
41756;DHT22;27435;48.480;9.258;2023-08-24T09:44:46;27.30;81.00
41756;DHT22;27435;48.480;9.258;2023-08-24T09:47:12;27.50;80.50
41756;DHT22;27435;48.480;9.258;2023-08-24T09:49:38;27.40;80.30
41756;DHT22;27435;48.480;9.258;2023-08-24T09:52:07;27.50;80.70
41756;DHT22;27435;48.480;9.258;2023-08-24T09:54:37;27.70;79.80
41756;DHT22;27435;48.480;9.258;2023-08-24T09:57:02;27.70;79.70
41756;DHT22;27435;48.480;9.258;2023-08-24T09:59:31;27.80;80.50
41756;DHT22;27435;48.480;9.258;2023-08-24T10:01:58;27.70;80.10
41756;DHT22;27435;48.480;9.258;2023-08-24T10:04:29;27.60;80.30
41756;DHT22;27435;48.480;9.258;2023-08-24T10:07:08;27.70;79.90
41756;DHT22;27435;48.480;9.258;2023-08-24T10:12:10;27.90;79.60
41756;DHT22;27435;48.480;9.258;2023-08-24T10:17:04;28.10;79.80
41756;DHT22;27435;48.480;9.258;2023-08-24T10:19:31;28.10;79.10
41756;DHT22;27435;48.480;9.258;2023-08-24T10:22:03;28.20;79.20
41756;DHT22;27435;48.480;9.258;2023-08-24T10:24:30;28.50;78.40
41756;DHT22;27435;48.480;9.258;2023-08-24T10:26:58;28.50;78.20
41756;DHT22;27435;48.480;9.258;2023-08-24T10:29:25;28.50;79.10
41756;DHT22;27435;48.480;9.258;2023-08-24T10:31:53;28.60;78.30
41756;DHT22;27435;48.480;9.258;2023-08-24T10:34:19;28.80;78.40
41756;DHT22;27435;48.480;9.258;2023-08-24T10:36:47;29.10;77.50
41756;DHT22;27435;48.480;9.258;2023-08-24T10:39:14;29.10;77.40
41756;DHT22;27435;48.480;9.258;2023-08-24T10:41:51;29.50;76.50
41756;DHT22;27435;48.480;9.258;2023-08-24T10:44:33;29.60;75.10
41756;DHT22;27435;48.480;9.258;2023-08-24T10:47:06;29.90;75.20
41756;DHT22;27435;48.480;9.258;2023-08-24T10:49:33;30.10;74.90
41756;DHT22;27435;48.480;9.258;2023-08-24T10:52:26;30.30;73.90
41756;DHT22;27435;48.480;9.258;2023-08-24T10:54:55;30.50;73.60
41756;DHT22;27435;48.480;9.258;2023-08-24T10:57:22;30.70;72.50
41756;DHT22;27435;48.480;9.258;2023-08-24T11:00:20;30.90;71.70
41756;DHT22;27435;48.480;9.258;2023-08-24T11:02:49;31.20;71.10
41756;DHT22;27435;48.480;9.258;2023-08-24T11:05:27;31.00;70.90
41756;DHT22;27435;48.480;9.258;2023-08-24T11:08:02;30.80;71.80
41756;DHT22;27435;48.480;9.258;2023-08-24T11:15:30;31.30;70.70
41756;DHT22;27435;48.480;9.258;2023-08-24T11:20:51;31.40;70.40
41756;DHT22;27435;48.480;9.258;2023-08-24T11:23:19;31.40;70.40
41756;DHT22;27435;48.480;9.258;2023-08-24T11:25:45;31.30;70.70
41756;DHT22;27435;48.480;9.258;2023-08-24T11:28:13;31.40;71.50
41756;DHT22;27435;48.480;9.258;2023-08-24T11:30:42;31.40;70.80
41756;DHT22;27435;48.480;9.258;2023-08-24T11:33:08;31.50;70.60
41756;DHT22;27435;48.480;9.258;2023-08-24T11:35:37;31.80;69.20
41756;DHT22;27435;48.480;9.258;2023-08-24T11:38:04;32.00;68.70
41756;DHT22;27435;48.480;9.258;2023-08-24T11:40:30;32.10;67.80
41756;DHT22;27435;48.480;9.258;2023-08-24T11:42:56;32.20;67.40
41756;DHT22;27435;48.480;9.258;2023-08-24T11:45:22;32.60;66.20
41756;DHT22;27435;48.480;9.258;2023-08-24T11:47:49;32.80;64.40
41756;DHT22;27435;48.480;9.258;2023-08-24T11:50:17;33.10;64.20
41756;DHT22;27435;48.480;9.258;2023-08-24T11:52:42;33.50;62.90
41756;DHT22;27435;48.480;9.258;2023-08-24T11:55:09;33.80;61.30
41756;DHT22;27435;48.480;9.258;2023-08-24T11:57:36;34.10;60.80
41756;DHT22;27435;48.480;9.258;2023-08-24T12:00:05;34.10;59.30
41756;DHT22;27435;48.480;9.258;2023-08-24T12:02:31;33.90;58.20
41756;DHT22;27435;48.480;9.258;2023-08-24T12:04:58;34.10;59.20
41756;DHT22;27435;48.480;9.258;2023-08-24T12:07:24;34.40;59.30
41756;DHT22;27435;48.480;9.258;2023-08-24T12:09:51;34.60;58.50
41756;DHT22;27435;48.480;9.258;2023-08-24T12:12:19;34.60;57.20
41756;DHT22;27435;48.480;9.258;2023-08-24T12:14:49;34.60;57.40
41756;DHT22;27435;48.480;9.258;2023-08-24T12:17:16;34.60;57.40
41756;DHT22;27435;48.480;9.258;2023-08-24T12:19:44;34.50;56.90
41756;DHT22;27435;48.480;9.258;2023-08-24T12:22:17;34.60;57.30
41756;DHT22;27435;48.480;9.258;2023-08-24T12:24:46;34.90;57.20
41756;DHT22;27435;48.480;9.258;2023-08-24T12:27:38;34.80;58.10
41756;DHT22;27435;48.480;9.258;2023-08-24T12:30:04;34.80;57.70
41756;DHT22;27435;48.480;9.258;2023-08-24T12:32:47;34.90;57.70
41756;DHT22;27435;48.480;9.258;2023-08-24T12:35:15;35.20;57.50
41756;DHT22;27435;48.480;9.258;2023-08-24T12:37:41;35.50;57.30
41756;DHT22;27435;48.480;9.258;2023-08-24T12:40:07;35.60;55.90
41756;DHT22;27435;48.480;9.258;2023-08-24T12:42:33;35.60;55.80
41756;DHT22;27435;48.480;9.258;2023-08-24T12:44:59;35.50;55.90
41756;DHT22;27435;48.480;9.258;2023-08-24T12:47:25;35.60;55.50
41756;DHT22;27435;48.480;9.258;2023-08-24T12:49:51;35.80;54.90
41756;DHT22;27435;48.480;9.258;2023-08-24T12:52:18;35.80;55.60
41756;DHT22;27435;48.480;9.258;2023-08-24T12:54:43;35.70;55.50
41756;DHT22;27435;48.480;9.258;2023-08-24T12:57:09;35.70;55.50
41756;DHT22;27435;48.480;9.258;2023-08-24T12:59:35;35.80;55.50
41756;DHT22;27435;48.480;9.258;2023-08-24T13:02:01;36.00;55.10
41756;DHT22;27435;48.480;9.258;2023-08-24T13:04:26;36.30;54.80
41756;DHT22;27435;48.480;9.258;2023-08-24T13:06:55;36.30;54.60
41756;DHT22;27435;48.480;9.258;2023-08-24T13:09:20;36.40;54.70
41756;DHT22;27435;48.480;9.258;2023-08-24T13:11:48;36.40;55.10
41756;DHT22;27435;48.480;9.258;2023-08-24T13:14:13;36.70;53.30
41756;DHT22;27435;48.480;9.258;2023-08-24T13:16:39;37.00;53.10
41756;DHT22;27435;48.480;9.258;2023-08-24T13:19:05;37.10;52.90
41756;DHT22;27435;48.480;9.258;2023-08-24T13:21:30;37.30;52.70
41756;DHT22;27435;48.480;9.258;2023-08-24T13:23:56;37.40;51.40
41756;DHT22;27435;48.480;9.258;2023-08-24T13:26:21;37.40;51.30
41756;DHT22;27435;48.480;9.258;2023-08-24T13:28:48;37.20;51.40
41756;DHT22;27435;48.480;9.258;2023-08-24T13:31:14;36.80;51.40
41756;DHT22;27435;48.480;9.258;2023-08-24T13:33:40;36.50;51.70
41756;DHT22;27435;48.480;9.258;2023-08-24T13:36:06;36.10;52.40
41756;DHT22;27435;48.480;9.258;2023-08-24T13:38:31;35.60;53.30
41756;DHT22;27435;48.480;9.258;2023-08-24T13:40:57;35.40;53.70
41756;DHT22;27435;48.480;9.258;2023-08-24T13:43:22;35.10;54.50
41756;DHT22;27435;48.480;9.258;2023-08-24T13:45:48;35.10;56.00
41756;DHT22;27435;48.480;9.258;2023-08-24T13:48:14;35.10;61.00
41756;DHT22;27435;48.480;9.258;2023-08-24T13:50:41;35.20;64.20
41756;DHT22;27435;48.480;9.258;2023-08-24T13:53:07;35.60;63.70
41756;DHT22;27435;48.480;9.258;2023-08-24T13:55:33;36.30;61.00
41756;DHT22;27435;48.480;9.258;2023-08-24T13:57:58;36.20;59.80
41756;DHT22;27435;48.480;9.258;2023-08-24T14:00:25;36.40;58.80
41756;DHT22;27435;48.480;9.258;2023-08-24T14:02:50;36.70;53.90
41756;DHT22;27435;48.480;9.258;2023-08-24T14:05:16;37.10;52.80
41756;DHT22;27435;48.480;9.258;2023-08-24T14:07:42;36.70;52.60
41756;DHT22;27435;48.480;9.258;2023-08-24T14:10:08;37.20;51.90
41756;DHT22;27435;48.480;9.258;2023-08-24T14:12:34;37.60;50.00
41756;DHT22;27435;48.480;9.258;2023-08-24T14:15:00;37.80;50.20
41756;DHT22;27435;48.480;9.258;2023-08-24T14:17:26;37.60;49.90
41756;DHT22;27435;48.480;9.258;2023-08-24T14:19:52;37.40;49.70
41756;DHT22;27435;48.480;9.258;2023-08-24T14:22:17;37.60;49.70
41756;DHT22;27435;48.480;9.258;2023-08-24T14:24:43;37.90;50.40
41756;DHT22;27435;48.480;9.258;2023-08-24T14:27:08;38.00;50.20
41756;DHT22;27435;48.480;9.258;2023-08-24T14:29:34;37.70;52.20
41756;DHT22;27435;48.480;9.258;2023-08-24T14:32:00;37.20;52.40
41756;DHT22;27435;48.480;9.258;2023-08-24T14:34:25;37.20;54.00
41756;DHT22;27435;48.480;9.258;2023-08-24T14:36:51;37.70;53.30
41756;DHT22;27435;48.480;9.258;2023-08-24T14:39:17;38.10;52.30
41756;DHT22;27435;48.480;9.258;2023-08-24T14:41:42;37.80;51.40
41756;DHT22;27435;48.480;9.258;2023-08-24T14:44:08;37.50;51.20
41756;DHT22;27435;48.480;9.258;2023-08-24T14:46:33;37.00;51.80
41756;DHT22;27435;48.480;9.258;2023-08-24T14:48:59;36.90;52.20
41756;DHT22;27435;48.480;9.258;2023-08-24T14:51:25;37.10;51.80
41756;DHT22;27435;48.480;9.258;2023-08-24T14:53:51;37.20;51.30
41756;DHT22;27435;48.480;9.258;2023-08-24T14:56:16;37.00;51.80
41756;DHT22;27435;48.480;9.258;2023-08-24T14:58:42;36.90;51.20
41756;DHT22;27435;48.480;9.258;2023-08-24T15:01:08;37.70;50.70
41756;DHT22;27435;48.480;9.258;2023-08-24T15:03:35;37.80;49.70
41756;DHT22;27435;48.480;9.258;2023-08-24T15:06:03;37.80;50.40
41756;DHT22;27435;48.480;9.258;2023-08-24T15:08:30;37.00;50.90
41756;DHT22;27435;48.480;9.258;2023-08-24T15:10:56;36.60;52.20
41756;DHT22;27435;48.480;9.258;2023-08-24T15:13:26;36.50;52.10
41756;DHT22;27435;48.480;9.258;2023-08-24T15:15:56;36.20;52.80
41756;DHT22;27435;48.480;9.258;2023-08-24T15:18:22;35.90;53.30
41756;DHT22;27435;48.480;9.258;2023-08-24T15:20:48;35.50;53.40
41756;DHT22;27435;48.480;9.258;2023-08-24T15:23:24;35.00;55.20
41756;DHT22;27435;48.480;9.258;2023-08-24T15:25:52;34.60;55.60
41756;DHT22;27435;48.480;9.258;2023-08-24T15:28:17;34.40;57.20
41756;DHT22;27435;48.480;9.258;2023-08-24T15:30:43;34.40;57.90
41756;DHT22;27435;48.480;9.258;2023-08-24T15:33:08;34.30;58.50
41756;DHT22;27435;48.480;9.258;2023-08-24T15:35:35;34.10;59.50
41756;DHT22;27435;48.480;9.258;2023-08-24T15:38:01;33.20;61.80
41756;DHT22;27435;48.480;9.258;2023-08-24T15:40:29;32.70;63.80
41756;DHT22;27435;48.480;9.258;2023-08-24T15:42:56;32.30;65.60
41756;DHT22;27435;48.480;9.258;2023-08-24T15:45:22;31.90;67.50
41756;DHT22;27435;48.480;9.258;2023-08-24T15:47:47;31.40;69.30